createdAt,value
2018-12-30T00:00:55.577Z,25.03
2018-12-30T00:03:27.422Z,22.17
2018-12-30T00:06:02.763Z,22.53
2018-12-30T00:08:52.377Z,21.57
2018-12-30T00:11:30.750Z,18.07
2018-12-30T00:14:04.442Z,20.60
2018-12-30T00:16:39.017Z,19.77
2018-12-30T00:19:10.452Z,18.67
2018-12-30T00:21:45.773Z,19.03
2018-12-30T00:24:16.771Z,18.23
2018-12-30T00:26:47.396Z,18.60
2018-12-30T00:29:20.485Z,20.47
2018-12-30T00:31:53.480Z,20.83
2018-12-30T00:34:28.576Z,21.23
2018-12-30T00:36:59.285Z,19.63
2018-12-30T00:39:29.755Z,21.10
2018-12-30T00:42:00.407Z,21.17
2018-12-30T00:44:31.665Z,18.03
2018-12-30T00:47:02.184Z,23.50
2018-12-30T00:49:35.171Z,23.47
2018-12-30T00:52:09.410Z,21.33
2018-12-30T00:54:42.957Z,23.40
2018-12-30T00:57:15.923Z,25.60
2018-12-30T00:59:52.240Z,22.57
2018-12-30T01:02:25.598Z,23.27
2018-12-30T01:05:02.562Z,21.17
2018-12-30T01:07:36.855Z,21.93
2018-12-30T01:10:15.342Z,23.70
2018-12-30T01:12:49.168Z,21.43
2018-12-30T01:15:22.780Z,21.30
2018-12-30T01:17:54.143Z,20.10
2018-12-30T01:20:44.236Z,25.20
2018-12-30T01:23:19.359Z,23.87
2018-12-30T01:25:52.756Z,25.37
2018-12-30T01:28:24.921Z,29.53
2018-12-30T01:30:58.995Z,26.13
2018-12-30T01:33:32.801Z,27.40
2018-12-30T01:36:05.169Z,24.80
2018-12-30T01:38:37.618Z,29.27
2018-12-30T01:41:10.605Z,32.37
2018-12-30T01:43:43.920Z,26.23
2018-12-30T01:46:17.167Z,27.20
2018-12-30T01:48:49.188Z,25.27
2018-12-30T01:51:21.246Z,25.77
2018-12-30T01:53:54.165Z,21.90
2018-12-30T01:56:27.644Z,25.03
2018-12-30T01:59:19.775Z,25.30
2018-12-30T02:01:52.357Z,27.97
2018-12-30T02:04:25.845Z,26.77
2018-12-30T02:06:58.652Z,23.00
2018-12-30T02:09:32.760Z,28.07
2018-12-30T02:12:09.135Z,22.00
2018-12-30T02:14:46.532Z,30.10
2018-12-30T02:17:17.150Z,24.40
2018-12-30T02:19:50.503Z,23.97
2018-12-30T02:22:24.925Z,28.57
2018-12-30T02:24:58.549Z,22.47
2018-12-30T02:27:29.138Z,24.37
2018-12-30T02:29:59.599Z,23.67
2018-12-30T02:32:30.212Z,23.47
2018-12-30T02:35:05.723Z,24.27
2018-12-30T02:37:38.919Z,25.47
2018-12-30T02:40:14.159Z,24.50
2018-12-30T02:42:47.580Z,23.07
2018-12-30T02:45:18.142Z,23.47
2018-12-30T02:47:51.298Z,23.53
2018-12-30T02:50:21.963Z,23.43
2018-12-30T02:52:56.181Z,17.67
2018-12-30T02:55:29.954Z,18.33
2018-12-30T02:58:17.172Z,18.93
2018-12-30T03:00:49.398Z,13.63
2018-12-30T03:03:21.906Z,11.93
2018-12-30T03:05:53.103Z,15.20
2018-12-30T03:08:23.767Z,14.10
2018-12-30T03:11:00.392Z,15.50
2018-12-30T03:13:34.324Z,14.53
2018-12-30T03:16:09.139Z,15.87
2018-12-30T03:18:42.044Z,15.67
2018-12-30T03:21:12.656Z,14.10
2018-12-30T03:23:43.151Z,15.80
2018-12-30T03:26:13.865Z,15.17
2018-12-30T03:28:45.186Z,13.70
2018-12-30T03:31:17.111Z,16.07
2018-12-30T03:33:52.347Z,15.17
2018-12-30T03:36:23.475Z,10.13
2018-12-30T03:38:57.367Z,13.20
2018-12-30T03:41:50.012Z,13.17
2018-12-30T03:44:24.696Z,11.73
2018-12-30T03:47:00.185Z,9.77
2018-12-30T03:49:33.322Z,12.60
2018-12-30T03:52:08.622Z,9.70
2018-12-30T03:54:38.795Z,12.30
2018-12-30T03:57:11.527Z,10.40
2018-12-30T03:59:42.454Z,12.30
2018-12-30T04:02:13.557Z,12.30
2018-12-30T04:05:02.405Z,15.80
2018-12-30T04:07:36.348Z,16.13
2018-12-30T04:10:25.126Z,14.00
2018-12-30T04:12:58.502Z,13.07
2018-12-30T04:15:31.659Z,15.27
2018-12-30T04:18:04.390Z,10.13
2018-12-30T04:20:37.704Z,11.70
2018-12-30T04:23:11.441Z,12.70
2018-12-30T04:25:44.304Z,11.03
2018-12-30T04:28:14.766Z,13.47
2018-12-30T04:30:45.552Z,11.50
2018-12-30T04:33:16.766Z,11.43
2018-12-30T04:35:53.729Z,13.00
2018-12-30T04:38:26.607Z,11.17
2018-12-30T04:40:59.244Z,10.93
2018-12-30T04:43:31.737Z,13.07
2018-12-30T04:46:05.983Z,12.93
2018-12-30T04:48:38.349Z,11.20
2018-12-30T04:51:11.768Z,11.77
2018-12-30T04:53:42.526Z,12.27
2018-12-30T04:56:15.102Z,12.17
2018-12-30T04:58:47.233Z,12.70
2018-12-30T05:01:19.342Z,11.80
2018-12-30T05:03:53.168Z,12.57
2018-12-30T05:06:23.640Z,20.73
2018-12-30T05:08:54.978Z,11.87
2018-12-30T05:11:36.780Z,10.60
2018-12-30T05:14:09.464Z,11.03
2018-12-30T05:16:42.425Z,11.87
2018-12-30T05:19:12.864Z,12.53
2018-12-30T05:21:43.603Z,12.97
2018-12-30T05:24:14.778Z,12.23
2018-12-30T05:26:45.314Z,12.00
2018-12-30T05:29:15.916Z,14.47
2018-12-30T05:31:51.348Z,14.10
2018-12-30T05:34:23.865Z,14.40
2018-12-30T05:36:56.739Z,12.57
2018-12-30T05:39:30.659Z,12.03
2018-12-30T05:42:02.371Z,13.20
2018-12-30T05:44:32.872Z,13.17
2018-12-30T05:47:05.875Z,11.20
2018-12-30T05:49:37.056Z,10.70
2018-12-30T05:52:17.480Z,11.23
2018-12-30T05:54:52.526Z,7.70
2018-12-30T05:57:24.229Z,10.13
2018-12-30T05:59:54.751Z,9.33
2018-12-30T06:02:25.241Z,8.17
2018-12-30T06:04:56.059Z,10.10
2018-12-30T06:07:32.860Z,7.67
2018-12-30T06:10:07.420Z,7.43
2018-12-30T06:12:38.006Z,9.17
2018-12-30T06:15:14.073Z,9.17
2018-12-30T06:17:45.011Z,8.07
2018-12-30T06:20:15.760Z,7.43
2018-12-30T06:22:49.738Z,7.90
2018-12-30T06:25:23.236Z,7.43
2018-12-30T06:27:55.458Z,8.20
2018-12-30T06:30:28.125Z,6.70
2018-12-30T06:33:17.274Z,10.10
2018-12-30T06:35:52.428Z,7.40
2018-12-30T06:38:26.520Z,8.03
2018-12-30T06:41:15.927Z,9.20
2018-12-30T06:43:50.804Z,8.47
2018-12-30T06:46:23.344Z,8.83
2018-12-30T06:48:53.871Z,7.10
2018-12-30T06:51:26.738Z,8.17
2018-12-30T06:53:58.412Z,7.83
2018-12-30T06:56:31.892Z,9.27
2018-12-30T06:59:06.350Z,8.43
2018-12-30T07:01:41.621Z,10.40
2018-12-30T07:04:12.278Z,10.03
2018-12-30T07:06:43.371Z,8.23
2018-12-30T07:09:13.856Z,7.90
2018-12-30T07:11:46.791Z,7.67
2018-12-30T07:14:17.347Z,7.73
2018-12-30T07:16:51.292Z,8.20
2018-12-30T07:19:26.130Z,8.40
2018-12-30T07:22:00.962Z,8.00
2018-12-30T07:24:33.164Z,8.10
2018-12-30T07:27:03.849Z,7.87
2018-12-30T07:29:34.787Z,9.40
2018-12-30T07:32:05.717Z,7.47
2018-12-30T07:34:39.813Z,7.90
2018-12-30T07:37:10.291Z,7.90
2018-12-30T07:39:41.588Z,9.60
2018-12-30T07:42:15.138Z,7.23
2018-12-30T07:44:54.599Z,9.20
2018-12-30T07:47:25.376Z,9.50
2018-12-30T07:49:55.912Z,7.77
2018-12-30T07:52:30.385Z,8.60
2018-12-30T07:55:03.600Z,7.13
2018-12-30T07:57:36.600Z,7.50
2018-12-30T08:00:09.508Z,8.07
2018-12-30T08:02:43.659Z,9.50
2018-12-30T08:05:14.507Z,8.47
2018-12-30T08:07:45.181Z,9.43
2018-12-30T08:10:16.147Z,9.97
2018-12-30T08:12:52.902Z,9.43
2018-12-30T08:15:24.132Z,8.07
2018-12-30T08:17:56.546Z,9.90
2018-12-30T08:20:31.525Z,9.30
2018-12-30T08:23:05.423Z,9.27
2018-12-30T08:25:54.587Z,9.03
2018-12-30T08:28:26.708Z,10.80
2018-12-30T08:30:59.472Z,8.50
2018-12-30T08:33:33.053Z,9.53
2018-12-30T08:36:07.186Z,9.40
2018-12-30T08:38:41.230Z,9.67
2018-12-30T08:41:14.404Z,10.30
2018-12-30T08:43:46.805Z,10.50
2018-12-30T08:46:17.621Z,9.90
2018-12-30T08:48:56.502Z,10.87
2018-12-30T08:51:28.006Z,8.83
2018-12-30T08:53:58.716Z,7.80
2018-12-30T08:56:30.156Z,8.17
2018-12-30T08:59:04.804Z,8.47
2018-12-30T09:01:35.800Z,9.50
2018-12-30T09:04:06.677Z,8.83
2018-12-30T09:06:55.185Z,6.77
2018-12-30T09:09:32.328Z,9.50
2018-12-30T09:12:02.740Z,6.57
2018-12-30T09:14:33.406Z,7.80
2018-12-30T09:17:03.815Z,8.77
2018-12-30T09:19:34.657Z,6.70
2018-12-30T09:22:05.175Z,6.30
2018-12-30T09:24:38.771Z,6.80
2018-12-30T09:27:12.210Z,9.33
2018-12-30T09:29:53.049Z,5.63
2018-12-30T09:32:26.432Z,4.90
2018-12-30T09:35:00.185Z,4.63
2018-12-30T09:37:32.383Z,5.57
2018-12-30T09:40:17.900Z,4.10
2018-12-30T09:42:50.964Z,4.37
2018-12-30T09:45:31.120Z,4.20
2018-12-30T09:48:05.646Z,4.20
2018-12-30T09:50:38.759Z,4.57
2018-12-30T09:53:13.123Z,4.10
2018-12-30T09:55:45.873Z,4.33
2018-12-30T09:58:20.579Z,4.70
2018-12-30T10:01:02.412Z,4.47
2018-12-30T10:03:34.681Z,4.67
2018-12-30T10:06:05.234Z,4.83
2018-12-30T10:08:38.797Z,4.40
2018-12-30T10:11:12.347Z,4.70
2018-12-30T10:13:46.450Z,5.20
2018-12-30T10:16:18.478Z,6.47
2018-12-30T10:18:52.417Z,5.00
2018-12-30T10:21:33.084Z,4.50
2018-12-30T10:24:06.109Z,4.90
2018-12-30T10:26:36.833Z,4.57
2018-12-30T10:29:07.252Z,5.00
2018-12-30T10:31:37.748Z,4.23
2018-12-30T10:34:08.621Z,5.07
2018-12-30T10:36:39.761Z,5.50
2018-12-30T10:39:14.291Z,4.87
2018-12-30T10:41:47.453Z,3.87
2018-12-30T10:44:26.147Z,4.37
2018-12-30T10:46:56.644Z,4.20
2018-12-30T10:49:27.160Z,4.07
2018-12-30T10:51:58.042Z,3.43
2018-12-30T10:54:28.780Z,3.90
2018-12-30T10:56:59.290Z,3.90
2018-12-30T10:59:30.240Z,3.73
2018-12-30T11:02:03.489Z,5.93
2018-12-30T11:04:52.734Z,3.97
2018-12-30T11:07:41.914Z,3.80
2018-12-30T11:10:26.706Z,22.37
2018-12-30T11:13:00.152Z,6.93
2018-12-30T11:15:32.051Z,7.80
2018-12-30T11:18:04.258Z,4.73
2018-12-30T11:20:35.947Z,4.63
2018-12-30T11:23:06.644Z,6.23
2018-12-30T11:25:41.259Z,4.87
2018-12-30T11:28:14.975Z,4.80
2018-12-30T11:30:53.833Z,4.33
2018-12-30T11:33:24.825Z,3.27
2018-12-30T11:35:58.541Z,3.73
2018-12-30T11:38:45.973Z,4.40
2018-12-30T11:41:17.674Z,3.70
2018-12-30T11:43:53.105Z,4.70
2018-12-30T11:46:25.375Z,5.30
2018-12-30T11:48:59.743Z,3.93
2018-12-30T11:51:33.459Z,4.47
2018-12-30T11:54:16.459Z,4.53
2018-12-30T11:56:45.464Z,4.77
2018-12-30T11:59:16.630Z,4.97
2018-12-30T12:01:47.293Z,4.40
2018-12-30T12:04:17.962Z,3.10
2018-12-30T12:06:49.434Z,2.73
2018-12-30T12:09:19.939Z,3.60
2018-12-30T12:11:50.417Z,3.10
2018-12-30T12:14:21.375Z,4.00
2018-12-30T12:16:59.415Z,3.10
2018-12-30T12:19:32.802Z,3.53
2018-12-30T12:22:04.927Z,4.20
2018-12-30T12:24:59.277Z,3.40
2018-12-30T12:27:31.595Z,4.33
2018-12-30T12:30:07.562Z,3.73
2018-12-30T12:32:43.248Z,3.73
2018-12-30T12:35:17.999Z,4.57
2018-12-30T12:37:59.617Z,5.90
2018-12-30T12:40:34.778Z,7.73
2018-12-30T12:43:20.112Z,8.57
2018-12-30T12:45:53.626Z,7.20
2018-12-30T12:48:26.603Z,6.67
2018-12-30T12:50:59.061Z,6.33
2018-12-30T12:53:33.016Z,5.10
2018-12-30T12:56:13.866Z,4.30
2018-12-30T12:59:03.459Z,9.87
2018-12-30T13:01:48.592Z,5.40
2018-12-30T13:04:19.455Z,5.20
2018-12-30T13:06:52.561Z,5.70
2018-12-30T13:09:36.176Z,4.43
2018-12-30T13:12:07.174Z,7.30
2018-12-30T13:14:37.900Z,5.33
2018-12-30T13:17:09.042Z,5.10
2018-12-30T13:19:39.575Z,5.30
2018-12-30T13:22:10.001Z,6.80
2018-12-30T13:24:40.480Z,6.23
2018-12-30T13:27:11.085Z,6.77
2018-12-30T13:29:42.020Z,5.50
2018-12-30T13:32:12.497Z,7.77
2018-12-30T13:34:43.124Z,6.23
2018-12-30T13:37:13.748Z,7.33
2018-12-30T13:39:46.583Z,6.03
2018-12-30T13:42:18.376Z,7.23
2018-12-30T13:44:50.324Z,4.97
2018-12-30T13:47:22.807Z,5.83
2018-12-30T13:49:55.971Z,6.00
2018-12-30T13:52:32.919Z,17.80
2018-12-30T13:55:03.813Z,7.40
2018-12-30T13:57:34.510Z,5.83
2018-12-30T14:00:07.822Z,5.23
2018-12-30T14:02:40.437Z,5.40
2018-12-30T14:05:17.167Z,4.87
2018-12-30T14:08:07.536Z,6.80
2018-12-30T14:10:38.309Z,5.97
2018-12-30T14:13:24.120Z,11.23
2018-12-30T14:15:55.082Z,7.70
2018-12-30T14:18:26.065Z,6.50
2018-12-30T14:20:56.661Z,7.07
2018-12-30T14:23:27.069Z,7.37
2018-12-30T14:25:57.690Z,7.30
2018-12-30T14:28:28.460Z,6.33
2018-12-30T14:30:59.215Z,8.53
2018-12-30T14:33:33.107Z,7.90
2018-12-30T14:36:08.027Z,6.83
2018-12-30T14:38:40.095Z,7.87
2018-12-30T14:41:14.131Z,6.00
2018-12-30T14:43:47.077Z,10.80
2018-12-30T14:46:17.697Z,8.60
2018-12-30T14:48:48.362Z,9.17
2018-12-30T14:51:19.784Z,10.53
2018-12-30T14:53:50.762Z,6.00
2018-12-30T14:56:25.711Z,12.40
2018-12-30T14:58:58.722Z,8.47
2018-12-30T15:01:30.444Z,14.70
2018-12-30T15:04:01.267Z,8.00
2018-12-30T15:06:33.059Z,9.73
2018-12-30T15:09:09.125Z,6.53
2018-12-30T15:11:40.016Z,5.93
2018-12-30T15:14:12.770Z,6.00
2018-12-30T15:16:46.244Z,9.00
2018-12-30T15:19:31.899Z,7.87
2018-12-30T15:22:05.322Z,6.73
2018-12-30T15:24:38.386Z,5.90
2018-12-30T15:27:09.489Z,9.27
2018-12-30T15:29:40.200Z,7.07
2018-12-30T15:32:13.362Z,9.20
2018-12-30T15:34:46.525Z,8.57
2018-12-30T15:37:17.292Z,5.33
2018-12-30T15:39:47.809Z,5.80
2018-12-30T15:42:19.022Z,8.53
2018-12-30T15:44:56.044Z,6.53
2018-12-30T15:47:26.787Z,7.87
2018-12-30T15:50:03.001Z,7.67
2018-12-30T15:52:35.832Z,8.20
2018-12-30T15:55:06.647Z,9.80
2018-12-30T15:57:53.402Z,5.83
2018-12-30T16:00:27.551Z,6.20
2018-12-30T16:03:09.464Z,7.77
2018-12-30T16:05:39.922Z,7.53
2018-12-30T16:08:10.342Z,11.53
2018-12-30T16:10:41.229Z,8.83
2018-12-30T16:13:11.647Z,6.90
2018-12-30T16:15:42.539Z,7.33
2018-12-30T16:18:13.897Z,6.67
2018-12-30T16:20:44.532Z,9.80
2018-12-30T16:23:15.046Z,4.80
2018-12-30T16:25:45.929Z,7.43
2018-12-30T16:28:16.702Z,9.23
2018-12-30T16:30:47.573Z,7.33
2018-12-30T16:33:18.465Z,6.10
2018-12-30T16:35:53.598Z,8.90
2018-12-30T16:38:25.701Z,9.70
2018-12-30T16:40:58.663Z,5.83
2018-12-30T16:43:35.485Z,7.30
2018-12-30T16:46:10.001Z,5.00
2018-12-30T16:48:42.217Z,7.20
2018-12-30T16:51:13.753Z,6.90
2018-12-30T16:53:46.913Z,11.67
2018-12-30T16:56:18.792Z,7.43
2018-12-30T16:58:52.611Z,6.77
2018-12-30T17:01:26.118Z,4.57
2018-12-30T17:03:59.689Z,6.33
2018-12-30T17:06:34.150Z,11.53
2018-12-30T17:09:08.489Z,4.43
2018-12-30T17:11:42.072Z,5.00
2018-12-30T17:14:14.289Z,5.73
2018-12-30T17:16:49.009Z,8.90
2018-12-30T17:19:21.998Z,6.63
2018-12-30T17:21:54.576Z,10.57
2018-12-30T17:24:28.361Z,7.50
2018-12-30T17:27:02.605Z,8.77
2018-12-30T17:29:36.146Z,6.67
2018-12-30T17:32:09.869Z,4.40
2018-12-30T17:34:49.262Z,3.50
2018-12-30T17:37:19.596Z,5.87
2018-12-30T17:39:52.361Z,7.53
2018-12-30T17:42:27.284Z,6.17
2018-12-30T17:45:02.439Z,6.83
2018-12-30T17:47:37.056Z,3.70
2018-12-30T17:50:10.316Z,2.73
2018-12-30T17:52:41.144Z,3.40
2018-12-30T17:55:13.118Z,8.17
2018-12-30T17:57:46.275Z,5.20
2018-12-30T18:00:19.834Z,4.97
2018-12-30T18:02:55.894Z,3.30
2018-12-30T18:05:30.318Z,4.43
2018-12-30T18:08:05.126Z,6.63
2018-12-30T18:10:38.120Z,8.97
2018-12-30T18:13:27.268Z,7.90
2018-12-30T18:15:58.742Z,4.90
2018-12-30T18:18:29.399Z,6.20
2018-12-30T18:21:00.212Z,7.87
2018-12-30T18:23:46.098Z,10.50
2018-12-30T18:26:16.854Z,6.80
2018-12-30T18:28:47.548Z,5.07
2018-12-30T18:31:38.427Z,9.80
2018-12-30T18:34:27.142Z,10.00
2018-12-30T18:37:15.645Z,11.30
2018-12-30T18:39:51.518Z,17.07
2018-12-30T18:42:22.064Z,9.20
2018-12-30T18:44:55.649Z,6.80
2018-12-30T18:47:28.149Z,6.63
2018-12-30T18:50:00.506Z,7.57
2018-12-30T18:52:33.392Z,8.53
2018-12-30T18:55:04.064Z,7.57
2018-12-30T18:57:39.097Z,10.10
2018-12-30T19:00:11.999Z,6.97
2018-12-30T19:02:42.508Z,7.53
2018-12-30T19:05:16.011Z,8.10
2018-12-30T19:07:53.364Z,5.70
2018-12-30T19:10:24.292Z,6.90
2018-12-30T19:12:57.859Z,7.53
2018-12-30T19:15:49.855Z,6.60
2018-12-30T19:18:24.947Z,4.43
2018-12-30T19:20:57.891Z,6.23
2018-12-30T19:23:46.943Z,4.30
2018-12-30T19:26:18.612Z,3.97
2018-12-30T19:28:49.046Z,5.47
2018-12-30T19:31:19.811Z,3.90
2018-12-30T19:33:50.965Z,5.67
2018-12-30T19:36:24.491Z,4.47
2018-12-30T19:39:01.253Z,4.97
2018-12-30T19:41:43.540Z,5.30
2018-12-30T19:44:23.099Z,7.27
2018-12-30T19:47:00.496Z,7.80
2018-12-30T19:49:33.155Z,6.40
2018-12-30T19:52:11.169Z,4.57
2018-12-30T19:54:44.187Z,7.40
2018-12-30T19:57:16.840Z,5.00
2018-12-30T20:00:00.664Z,4.30
2018-12-30T20:02:32.178Z,5.30
2018-12-30T20:05:06.618Z,8.90
2018-12-30T20:07:41.382Z,6.90
2018-12-30T20:10:14.799Z,9.57
2018-12-30T20:12:46.199Z,6.13
2018-12-30T20:15:18.920Z,6.57
2018-12-30T20:18:06.569Z,5.10
2018-12-30T20:21:03.572Z,6.43
2018-12-30T20:23:57.158Z,3.67
2018-12-30T20:26:52.311Z,4.93
2018-12-30T20:29:39.141Z,5.90
2018-12-30T20:32:24.608Z,6.60
2018-12-30T20:35:31.157Z,5.50
2018-12-30T20:38:28.532Z,8.30
2018-12-30T20:41:05.157Z,6.17
2018-12-30T20:43:53.226Z,9.60
2018-12-30T20:46:46.719Z,6.80
2018-12-30T20:49:47.211Z,10.00
2018-12-30T20:52:26.499Z,9.50
2018-12-30T20:55:13.499Z,7.03
2018-12-30T21:01:02.893Z,8.00
2018-12-30T21:03:56.403Z,10.50
2018-12-30T21:06:59.455Z,6.43
2018-12-30T21:09:55.890Z,6.63
2018-12-30T21:13:14.583Z,9.37
2018-12-30T21:16:13.227Z,6.90
2018-12-30T21:19:00.761Z,7.13
2018-12-30T21:21:35.279Z,5.10
2018-12-30T21:24:07.538Z,7.90
2018-12-30T21:26:45.393Z,9.13
2018-12-30T21:29:18.539Z,6.27
2018-12-30T21:31:55.426Z,8.73
2018-12-30T21:34:32.117Z,7.33
2018-12-30T21:37:03.392Z,8.40
2018-12-30T21:39:33.888Z,9.50
2018-12-30T21:42:05.378Z,6.77
2018-12-30T21:44:37.243Z,8.00
2018-12-30T21:47:09.806Z,3.67
2018-12-30T21:49:43.418Z,6.80
2018-12-30T21:52:14.128Z,4.67
2018-12-30T21:54:45.261Z,4.30
2018-12-30T21:57:19.161Z,6.13
2018-12-30T21:59:52.691Z,7.50
2018-12-30T22:02:27.078Z,9.27
2018-12-30T22:04:58.874Z,5.07
2018-12-30T22:07:29.327Z,9.80
2018-12-30T22:10:03.286Z,5.70
2018-12-30T22:12:34.286Z,4.20
2018-12-30T22:15:05.734Z,2.80
2018-12-30T22:17:40.224Z,4.23
2018-12-30T22:20:12.471Z,3.90
2018-12-30T22:22:52.347Z,2.50
2018-12-30T22:25:22.802Z,3.77
2018-12-30T22:27:54.605Z,7.60
2018-12-30T22:30:29.800Z,2.03
2018-12-30T22:33:02.281Z,1.50
2018-12-30T22:35:34.390Z,1.77
2018-12-30T22:38:05.226Z,1.50
2018-12-30T22:40:38.143Z,2.50
2018-12-30T22:43:11.403Z,2.50
2018-12-30T22:45:44.811Z,4.40
2018-12-30T22:48:18.574Z,2.17
2018-12-30T22:50:54.520Z,3.70
2018-12-30T22:53:26.543Z,3.10
2018-12-30T22:56:01.102Z,2.87
2018-12-30T22:58:32.874Z,4.07
2018-12-30T23:01:11.548Z,6.23
2018-12-30T23:03:43.960Z,2.00
2018-12-30T23:06:16.647Z,2.43
2018-12-30T23:08:49.128Z,2.63
2018-12-30T23:11:20.762Z,1.70
2018-12-30T23:13:55.022Z,7.10
2018-12-30T23:16:28.397Z,6.50
2018-12-30T23:19:03.196Z,3.97
2018-12-30T23:21:52.922Z,2.40
2018-12-30T23:24:31.680Z,3.10
2018-12-30T23:27:06.046Z,4.93
2018-12-30T23:29:37.588Z,3.70
2018-12-30T23:32:08.376Z,3.83
2018-12-30T23:34:40.449Z,3.50
2018-12-30T23:37:13.129Z,5.90
2018-12-30T23:39:43.905Z,4.60
2018-12-30T23:42:14.556Z,3.50
2018-12-30T23:44:45.557Z,6.67
2018-12-30T23:47:16.572Z,5.63
2018-12-30T23:50:07.879Z,7.63
2018-12-30T23:52:57.433Z,3.20
2018-12-30T23:55:40.178Z,4.50
2018-12-30T23:58:13.310Z,10.83
